Norton, VT (05907)

12:42 PM EDT on September 02, 2014 (GMT -0400)
Island Pond | Change Station
CLOSE
Current Station
Personal Weather Station
Location: Brighton, VT
Elevation: 1204 ft
Nearby Weather Stations

Elev 1204 ft 44.81 °N, 71.86 °W | Updated 3 seconds ago

Partly Cloudy
Partly Cloudy
78.9 °F
Feels Like 82 °F
N
0.0
Wind Variable Wind from NW
Gusts 1.0 mph

Today
High -- | Low -- °F
--% Chance of Precip.
Yesterday
High -- | Low -- °F
Precip. -- in
6:10 AM 7:22 PM
First Quarter, 53% visible
Pressure 29.83 in
Visibility 10.0 miles
Clouds Clear
Heat Index 82 °F
Dew Point 70 °F
Humidity 74%
Rainfall 0.00 in
Snow Depth Not available.
UV 8 out of 12
Pollen 5.50 out of 12
PM2.5 Good
Flu Activity Not available.
METAR KEFK 021635Z AUTO 19009KT 10SM CLR 27/21 A2983 RMK AO2 T02710206

More Conditions Fewer Conditions

Pressure 29.83 in
Visibility 10.0 miles
Clouds Clear
Heat Index 82 °F
Dew Point 70 °F
Humidity 74%
Rainfall 0.00 in
Snow Depth Not available.
UV 8 out of 12
Pollen 5.50 out of 12
PM2.5 Good
Flu Activity Not available.
METAR KEFK 021635Z AUTO 19009KT 10SM CLR 27/21 A2983 RMK AO2 T02710206

More Conditions Fewer Conditions

10-Day Weather Forecast

Almanac

Astronomy

Sep. 02, 2014 Rise Set
Actual Time 6:10 AM EDT 7:22 PM EDT
Civil Twilight 5:40 AM EDT 7:52 PM EDT
Nautical Twilight 5:03 AM EDT 8:28 PM EDT
Astronomical Twilight 4:25 AM EDT 9:07 PM EDT
Moon 2:10 PM EDT 11:55 PM EDT
Length of Visible Light 14h 12m
Length of Day
13h 12m
Tomorrow will be 3m 3s shorter.
First Quarter, 53% of the Moon is Illuminated
Today
First Quarter
Sep 8
Full
Sep 15
Last Quarter
Sep 24
New
Oct 1
First Quarter

Today's Extremes

State Highs State Lows

Community

WunderPhotos

Upload Photos

1,749,716 photos uploaded!

Nearby

Air Quality

  Air Quality AQ Index Pollutant
Yesterday Good
OZONE
Yesterday Good
PM2.5
Current Good
PM2.5
Tuesday Moderate
PM2.5

Snow Depth

Station Depth Elevation
No new snow has been reported.

Earthquake Activity

City Distance Mag. Time & Date
No recent earthquake activity has been reported nearby.
Minimum magnitude displayed is 2.5.

Coastal Water Temperatures

Place Temperature
No Stations Reporting

Nearby Weather Stations